sensor_id;sensor_type;location;lat;lon;timestamp;pressure;altitude;pressure_sealevel;temperature;humidity
68871;BME280;55906;52.278;6.808;2023-04-23T00:01:57;100678.97;;;10.34;90.57
68871;BME280;55906;52.278;6.808;2023-04-23T00:04:25;100684.16;;;10.31;90.54
68871;BME280;55906;52.278;6.808;2023-04-23T00:06:54;100678.13;;;10.35;90.10
68871;BME280;55906;52.278;6.808;2023-04-23T00:09:22;100669.31;;;10.33;90.68
68871;BME280;55906;52.278;6.808;2023-04-23T00:11:51;100673.56;;;10.27;90.34
68871;BME280;55906;52.278;6.808;2023-04-23T00:14:18;100671.78;;;10.26;90.62
68871;BME280;55906;52.278;6.808;2023-04-23T00:16:45;100659.59;;;10.30;90.55
68871;BME280;55906;52.278;6.808;2023-04-23T00:19:12;100667.53;;;10.32;90.48
68871;BME280;55906;52.278;6.808;2023-04-23T00:21:38;100669.31;;;10.33;90.66
68871;BME280;55906;52.278;6.808;2023-04-23T00:24:06;100673.53;;;10.26;90.95
68871;BME280;55906;52.278;6.808;2023-04-23T00:26:33;100670.13;;;10.30;90.80
68871;BME280;55906;52.278;6.808;2023-04-23T00:28:59;100672.72;;;10.29;90.29
68871;BME280;55906;52.278;6.808;2023-04-23T00:31:26;100681.38;;;10.24;90.67
68871;BME280;55906;52.278;6.808;2023-04-23T00:33:53;100670.69;;;10.18;91.09
68871;BME280;55906;52.278;6.808;2023-04-23T00:36:20;100669.84;;;10.19;90.83
68871;BME280;55906;52.278;6.808;2023-04-23T00:38:46;100669.72;;;10.15;90.69
68871;BME280;55906;52.278;6.808;2023-04-23T00:41:14;100661.03;;;10.17;90.62
68871;BME280;55906;52.278;6.808;2023-04-23T00:43:41;100661.69;;;10.09;91.01
68871;BME280;55906;52.278;6.808;2023-04-23T00:46:08;100656.41;;;10.07;90.48
68871;BME280;55906;52.278;6.808;2023-04-23T00:48:36;100660.03;;;10.12;90.82
68871;BME280;55906;52.278;6.808;2023-04-23T00:51:05;100652.03;;;10.08;90.90
68871;BME280;55906;52.278;6.808;2023-04-23T00:53:32;100663.50;;;10.11;90.86
68871;BME280;55906;52.278;6.808;2023-04-23T00:56:00;100661.81;;;10.13;90.91
68871;BME280;55906;52.278;6.808;2023-04-23T00:58:29;100655.78;;;10.17;90.69
68871;BME280;55906;52.278;6.808;2023-04-23T01:00:56;100650.50;;;10.17;90.21
68871;BME280;55906;52.278;6.808;2023-04-23T01:03:24;100661.81;;;10.13;90.48
68871;BME280;55906;52.278;6.808;2023-04-23T01:05:51;100659.13;;;10.12;90.70
68871;BME280;55906;52.278;6.808;2023-04-23T01:08:19;100659.91;;;10.08;91.19
68871;BME280;55906;52.278;6.808;2023-04-23T01:10:47;100650.34;;;10.10;91.21
68871;BME280;55906;52.278;6.808;2023-04-23T01:13:15;100648.66;;;10.13;90.77
68871;BME280;55906;52.278;6.808;2023-04-23T01:15:43;100660.13;;;10.17;90.40
68871;BME280;55906;52.278;6.808;2023-04-23T01:18:11;100655.66;;;10.13;90.90
68871;BME280;55906;52.278;6.808;2023-04-23T01:20:37;100654.78;;;10.12;90.40
68871;BME280;55906;52.278;6.808;2023-04-23T01:23:06;100656.63;;;10.16;90.71
68871;BME280;55906;52.278;6.808;2023-04-23T01:25:33;100651.38;;;10.16;90.33
68871;BME280;55906;52.278;6.808;2023-04-23T01:28:00;100650.28;;;10.08;91.23
68871;BME280;55906;52.278;6.808;2023-04-23T01:30:27;100644.97;;;10.05;91.46
68871;BME280;55906;52.278;6.808;2023-04-23T01:32:55;100649.47;;;10.11;90.88
68871;BME280;55906;52.278;6.808;2023-04-23T01:35:22;100645.88;;;10.07;91.38
68871;BME280;55906;52.278;6.808;2023-04-23T01:37:50;100648.50;;;10.07;91.20
68871;BME280;55906;52.278;6.808;2023-04-23T01:40:18;100659.91;;;10.08;91.33
68871;BME280;55906;52.278;6.808;2023-04-23T01:42:45;100656.31;;;10.04;91.43
68871;BME280;55906;52.278;6.808;2023-04-23T01:45:12;100649.25;;;10.02;91.63
68871;BME280;55906;52.278;6.808;2023-04-23T01:47:40;100646.75;;;10.06;90.86
68871;BME280;55906;52.278;6.808;2023-04-23T01:50:08;100642.41;;;10.08;90.83
68871;BME280;55906;52.278;6.808;2023-04-23T01:52:34;100642.34;;;10.05;91.31
68871;BME280;55906;52.278;6.808;2023-04-23T01:55:01;100644.78;;;9.98;91.49
68871;BME280;55906;52.278;6.808;2023-04-23T01:57:29;100649.91;;;9.93;92.18
68871;BME280;55906;52.278;6.808;2023-04-23T02:00:00;100656.97;;;9.94;91.71
68871;BME280;55906;52.278;6.808;2023-04-23T02:02:29;100648.91;;;9.88;91.76
68871;BME280;55906;52.278;6.808;2023-04-23T02:04:56;100655.91;;;9.87;91.67
68871;BME280;55906;52.278;6.808;2023-04-23T02:07:24;100641.84;;;9.85;91.35
68871;BME280;55906;52.278;6.808;2023-04-23T02:09:50;100651.41;;;9.82;91.49
68871;BME280;55906;52.278;6.808;2023-04-23T02:12:17;100651.28;;;9.77;92.16
68871;BME280;55906;52.278;6.808;2023-04-23T02:14:45;100648.56;;;9.74;92.11
68871;BME280;55906;52.278;6.808;2023-04-23T02:17:12;100652.00;;;9.72;92.09
68871;BME280;55906;52.278;6.808;2023-04-23T02:19:39;100638.81;;;9.69;91.90
68871;BME280;55906;52.278;6.808;2023-04-23T02:22:05;100644.78;;;9.63;92.58
68871;BME280;55906;52.278;6.808;2023-04-23T02:24:33;100641.28;;;9.62;92.32
68871;BME280;55906;52.278;6.808;2023-04-23T02:27:00;100629.81;;;9.59;91.95
68871;BME280;55906;52.278;6.808;2023-04-23T02:29:27;100640.31;;;9.59;92.15
68871;BME280;55906;52.278;6.808;2023-04-23T02:31:55;100632.25;;;9.53;92.37
68871;BME280;55906;52.278;6.808;2023-04-23T02:34:22;100640.16;;;9.53;92.24
68871;BME280;55906;52.278;6.808;2023-04-23T02:36:49;100641.81;;;9.49;92.36
68871;BME280;55906;52.278;6.808;2023-04-23T02:39:15;100643.63;;;9.52;92.35
68871;BME280;55906;52.278;6.808;2023-04-23T02:41:42;100640.03;;;9.48;92.25
68871;BME280;55906;52.278;6.808;2023-04-23T02:44:09;100633.84;;;9.46;92.22
68871;BME280;55906;52.278;6.808;2023-04-23T02:46:35;100635.63;;;9.47;92.25
68871;BME280;55906;52.278;6.808;2023-04-23T02:49:03;100631.19;;;9.45;92.63
68871;BME280;55906;52.278;6.808;2023-04-23T02:51:31;100625.16;;;9.49;92.45
68871;BME280;55906;52.278;6.808;2023-04-23T02:53:57;100630.53;;;9.53;92.23
68871;BME280;55906;52.278;6.808;2023-04-23T02:56:25;100618.25;;;9.52;92.32
68871;BME280;55906;52.278;6.808;2023-04-23T02:58:51;100620.91;;;9.54;92.50
68871;BME280;55906;52.278;6.808;2023-04-23T03:01:18;100613.03;;;9.54;93.18
68871;BME280;55906;52.278;6.808;2023-04-23T03:03:45;100616.59;;;9.56;93.05
68871;BME280;55906;52.278;6.808;2023-04-23T03:06:13;100619.22;;;9.56;92.94
68871;BME280;55906;52.278;6.808;2023-04-23T03:08:39;100610.59;;;9.61;92.52
68871;BME280;55906;52.278;6.808;2023-04-23T03:11:06;100613.22;;;9.61;92.42
68871;BME280;55906;52.278;6.808;2023-04-23T03:13:32;100612.41;;;9.64;92.39
68871;BME280;55906;52.278;6.808;2023-04-23T03:15:59;100608.13;;;9.68;92.28
68871;BME280;55906;52.278;6.808;2023-04-23T03:18:26;100607.28;;;9.69;92.19
68871;BME280;55906;52.278;6.808;2023-04-23T03:20:53;100600.31;;;9.71;91.99
68871;BME280;55906;52.278;6.808;2023-04-23T03:23:20;100602.16;;;9.73;91.98
68871;BME280;55906;52.278;6.808;2023-04-23T03:25:47;100600.41;;;9.74;92.10
68871;BME280;55906;52.278;6.808;2023-04-23T03:28:14;100598.66;;;9.74;92.14
68871;BME280;55906;52.278;6.808;2023-04-23T03:30:40;100596.97;;;9.76;91.88
68871;BME280;55906;52.278;6.808;2023-04-23T03:33:07;100593.44;;;9.76;91.72
68871;BME280;55906;52.278;6.808;2023-04-23T03:35:34;100601.41;;;9.79;91.64
68871;BME280;55906;52.278;6.808;2023-04-23T03:38:01;100589.28;;;9.84;91.41
68871;BME280;55906;52.278;6.808;2023-04-23T03:40:29;100584.00;;;9.84;91.33
68871;BME280;55906;52.278;6.808;2023-04-23T03:42:55;100585.78;;;9.85;91.31
68871;BME280;55906;52.278;6.808;2023-04-23T03:45:23;100581.44;;;9.85;91.48
68871;BME280;55906;52.278;6.808;2023-04-23T03:47:50;100575.22;;;9.82;91.87
68871;BME280;55906;52.278;6.808;2023-04-23T03:50:17;100578.75;;;9.84;91.79
68871;BME280;55906;52.278;6.808;2023-04-23T03:52:43;100581.34;;;9.82;91.47
68871;BME280;55906;52.278;6.808;2023-04-23T03:55:10;100580.31;;;9.76;92.04
68871;BME280;55906;52.278;6.808;2023-04-23T03:57:38;100585.72;;;9.82;91.50
68871;BME280;55906;52.278;6.808;2023-04-23T04:00:05;100582.31;;;9.86;91.72
68871;BME280;55906;52.278;6.808;2023-04-23T04:02:36;100580.59;;;9.88;91.41
68871;BME280;55906;52.278;6.808;2023-04-23T04:05:03;100581.56;;;9.91;91.43
68871;BME280;55906;52.278;6.808;2023-04-23T04:07:30;100571.97;;;9.93;91.22
68871;BME280;55906;52.278;6.808;2023-04-23T04:09:57;100577.22;;;9.93;91.34
68871;BME280;55906;52.278;6.808;2023-04-23T04:12:27;100571.19;;;9.98;91.35
68871;BME280;55906;52.278;6.808;2023-04-23T04:14:55;100575.63;;;10.00;91.36
68871;BME280;55906;52.278;6.808;2023-04-23T04:17:22;100574.78;;;10.01;91.37
68871;BME280;55906;52.278;6.808;2023-04-23T04:19:48;100579.09;;;9.98;91.18
68871;BME280;55906;52.278;6.808;2023-04-23T04:22:16;100571.19;;;9.98;91.49
68871;BME280;55906;52.278;6.808;2023-04-23T04:24:42;100563.44;;;10.02;91.23
68871;BME280;55906;52.278;6.808;2023-04-23T04:27:11;100580.91;;;10.00;90.99
68871;BME280;55906;52.278;6.808;2023-04-23T04:29:38;100577.34;;;9.98;91.15
68871;BME280;55906;52.278;6.808;2023-04-23T04:32:06;100573.88;;;9.99;91.24
68871;BME280;55906;52.278;6.808;2023-04-23T04:34:33;100574.75;;;10.00;91.74
68871;BME280;55906;52.278;6.808;2023-04-23T04:37:02;100575.72;;;10.03;90.99
68871;BME280;55906;52.278;6.808;2023-04-23T04:39:29;100573.09;;;10.03;91.26
68871;BME280;55906;52.278;6.808;2023-04-23T04:41:55;100574.78;;;10.01;91.66
68871;BME280;55906;52.278;6.808;2023-04-23T04:44:24;100571.34;;;10.04;91.13
68871;BME280;55906;52.278;6.808;2023-04-23T04:46:50;100572.19;;;10.03;91.22
68871;BME280;55906;52.278;6.808;2023-04-23T04:49:19;100578.44;;;10.08;90.89
68871;BME280;55906;52.278;6.808;2023-04-23T04:51:46;100579.22;;;10.04;91.52
68871;BME280;55906;52.278;6.808;2023-04-23T04:54:13;100584.47;;;10.04;91.32
68871;BME280;55906;52.278;6.808;2023-04-23T04:56:39;100586.38;;;10.09;90.83
68871;BME280;55906;52.278;6.808;2023-04-23T04:59:06;100590.69;;;10.07;91.16
68871;BME280;55906;52.278;6.808;2023-04-23T05:01:32;100581.94;;;10.07;91.36
68871;BME280;55906;52.278;6.808;2023-04-23T05:04:01;100584.59;;;10.08;90.80
68871;BME280;55906;52.278;6.808;2023-04-23T05:06:29;100577.72;;;10.15;90.58
68871;BME280;55906;52.278;6.808;2023-04-23T05:08:56;100572.38;;;10.10;90.77
68871;BME280;55906;52.278;6.808;2023-04-23T05:11:23;100571.44;;;10.08;90.66
68871;BME280;55906;52.278;6.808;2023-04-23T05:13:50;100561.03;;;10.13;90.29
68871;BME280;55906;52.278;6.808;2023-04-23T05:16:17;100560.97;;;10.10;90.89
68871;BME280;55906;52.278;6.808;2023-04-23T05:18:44;100552.19;;;10.09;90.49
68871;BME280;55906;52.278;6.808;2023-04-23T05:21:10;100565.34;;;10.09;90.99
68871;BME280;55906;52.278;6.808;2023-04-23T05:23:38;100547.88;;;10.11;90.33
68871;BME280;55906;52.278;6.808;2023-04-23T05:26:05;100560.19;;;10.14;90.17
68871;BME280;55906;52.278;6.808;2023-04-23T05:28:32;100568.97;;;10.14;90.65
68871;BME280;55906;52.278;6.808;2023-04-23T05:30:58;100562.75;;;10.11;90.45
68871;BME280;55906;52.278;6.808;2023-04-23T05:33:25;100565.41;;;10.12;90.91
68871;BME280;55906;52.278;6.808;2023-04-23T05:35:52;100561.84;;;10.10;90.77
68871;BME280;55906;52.278;6.808;2023-04-23T05:38:19;100570.66;;;10.12;90.64
68871;BME280;55906;52.278;6.808;2023-04-23T05:40:47;100568.81;;;10.08;91.13
68871;BME280;55906;52.278;6.808;2023-04-23T05:43:13;100576.00;;;10.15;90.95
68871;BME280;55906;52.278;6.808;2023-04-23T05:45:40;100573.50;;;10.20;91.27
68871;BME280;55906;52.278;6.808;2023-04-23T05:48:07;100566.69;;;10.30;91.04
68871;BME280;55906;52.278;6.808;2023-04-23T05:50:34;100565.09;;;10.36;90.97
68871;BME280;55906;52.278;6.808;2023-04-23T05:53:00;100567.03;;;10.43;90.87
68871;BME280;55906;52.278;6.808;2023-04-23T05:55:27;100564.69;;;10.57;90.47
68871;BME280;55906;52.278;6.808;2023-04-23T05:57:55;100557.00;;;10.66;89.74
68871;BME280;55906;52.278;6.808;2023-04-23T06:00:22;100549.38;;;10.80;89.47
68871;BME280;55906;52.278;6.808;2023-04-23T06:02:48;100561.13;;;10.99;88.61
68871;BME280;55906;52.278;6.808;2023-04-23T06:05:15;100563.19;;;11.15;88.99
68871;BME280;55906;52.278;6.808;2023-04-23T06:07:41;100565.09;;;11.22;87.91
68871;BME280;55906;52.278;6.808;2023-04-23T06:10:09;100561.84;;;11.37;87.74
68871;BME280;55906;52.278;6.808;2023-04-23T06:12:35;100559.34;;;11.44;86.95
68871;BME280;55906;52.278;6.808;2023-04-23T06:15:07;100562.16;;;11.55;86.89
68871;BME280;55906;52.278;6.808;2023-04-23T06:17:34;100554.19;;;11.52;86.06
68871;BME280;55906;52.278;6.808;2023-04-23T06:20:01;100552.63;;;11.63;86.39
68871;BME280;55906;52.278;6.808;2023-04-23T06:22:29;100552.00;;;11.76;85.36
68871;BME280;55906;52.278;6.808;2023-04-23T06:24:55;100555.69;;;11.86;85.26
68871;BME280;55906;52.278;6.808;2023-04-23T06:27:22;100561.03;;;11.91;85.25
68871;BME280;55906;52.278;6.808;2023-04-23T06:29:49;100556.59;;;11.88;84.80
68871;BME280;55906;52.278;6.808;2023-04-23T06:32:17;100559.28;;;11.91;84.68
68871;BME280;55906;52.278;6.808;2023-04-23T06:34:44;100553.19;;;11.95;84.51
68871;BME280;55906;52.278;6.808;2023-04-23T06:37:11;100545.31;;;11.97;84.02
68871;BME280;55906;52.278;6.808;2023-04-23T06:39:37;100535.66;;;11.97;84.41
68871;BME280;55906;52.278;6.808;2023-04-23T06:42:04;100536.53;;;11.98;84.41
68871;BME280;55906;52.278;6.808;2023-04-23T06:44:31;100536.63;;;12.05;84.38
68871;BME280;55906;52.278;6.808;2023-04-23T06:46:58;100534.97;;;12.10;84.10
68871;BME280;55906;52.278;6.808;2023-04-23T06:49:26;100535.09;;;12.21;83.77
68871;BME280;55906;52.278;6.808;2023-04-23T06:51:53;100532.53;;;12.26;84.06
68871;BME280;55906;52.278;6.808;2023-04-23T06:54:19;100535.31;;;12.36;83.44
68871;BME280;55906;52.278;6.808;2023-04-23T06:56:46;100531.06;;;12.47;82.70
68871;BME280;55906;52.278;6.808;2023-04-23T06:59:12;100528.38;;;12.44;83.10
68871;BME280;55906;52.278;6.808;2023-04-23T07:01:39;100523.19;;;12.50;83.00
68871;BME280;55906;52.278;6.808;2023-04-23T07:04:06;100517.06;;;12.53;82.83
68871;BME280;55906;52.278;6.808;2023-04-23T07:06:34;100524.09;;;12.54;82.61
68871;BME280;55906;52.278;6.808;2023-04-23T07:09:01;100518.81;;;12.54;82.66
68871;BME280;55906;52.278;6.808;2023-04-23T07:11:28;100519.84;;;12.67;83.04
68871;BME280;55906;52.278;6.808;2023-04-23T07:13:56;100506.81;;;12.80;82.49
68871;BME280;55906;52.278;6.808;2023-04-23T07:16:23;100498.09;;;12.88;81.35
68871;BME280;55906;52.278;6.808;2023-04-23T07:18:50;100499.94;;;12.98;80.97
68871;BME280;55906;52.278;6.808;2023-04-23T07:21:16;100499.28;;;13.16;80.88
68871;BME280;55906;52.278;6.808;2023-04-23T07:23:44;100508.19;;;13.24;80.16
68871;BME280;55906;52.278;6.808;2023-04-23T07:26:11;100507.38;;;13.31;79.77
68871;BME280;55906;52.278;6.808;2023-04-23T07:28:38;100497.75;;;13.40;78.96
68871;BME280;55906;52.278;6.808;2023-04-23T07:31:04;100516.34;;;13.51;78.45
68871;BME280;55906;52.278;6.808;2023-04-23T07:33:32;100511.91;;;13.45;77.85
68871;BME280;55906;52.278;6.808;2023-04-23T07:35:58;100515.47;;;13.51;77.95
68871;BME280;55906;52.278;6.808;2023-04-23T07:38:25;100519.06;;;13.59;78.02
68871;BME280;55906;52.278;6.808;2023-04-23T07:40:53;100512.09;;;13.71;78.08
68871;BME280;55906;52.278;6.808;2023-04-23T07:43:20;100508.56;;;13.69;77.08
68871;BME280;55906;52.278;6.808;2023-04-23T07:45:46;100505.88;;;13.66;77.22
68871;BME280;55906;52.278;6.808;2023-04-23T07:48:13;100502.47;;;13.81;76.47
68871;BME280;55906;52.278;6.808;2023-04-23T07:50:40;100504.25;;;13.85;76.23
68871;BME280;55906;52.278;6.808;2023-04-23T07:53:06;100495.56;;;14.04;76.15
68871;BME280;55906;52.278;6.808;2023-04-23T07:55:33;100483.25;;;14.09;75.16
68871;BME280;55906;52.278;6.808;2023-04-23T07:58:01;100495.66;;;14.26;75.07
68871;BME280;55906;52.278;6.808;2023-04-23T08:00:27;100491.25;;;14.25;74.94
68871;BME280;55906;52.278;6.808;2023-04-23T08:02:54;100486.84;;;14.25;74.51
68871;BME280;55906;52.278;6.808;2023-04-23T08:05:21;100486.06;;;14.41;74.18
68871;BME280;55906;52.278;6.808;2023-04-23T08:07:47;100491.41;;;14.48;74.26
68871;BME280;55906;52.278;6.808;2023-04-23T08:10:14;100483.47;;;14.49;74.10
68871;BME280;55906;52.278;6.808;2023-04-23T08:12:41;100496.78;;;14.67;73.20
68871;BME280;55906;52.278;6.808;2023-04-23T08:15:10;100495.91;;;14.75;73.11
68871;BME280;55906;52.278;6.808;2023-04-23T08:17:36;100492.41;;;14.88;72.91
68871;BME280;55906;52.278;6.808;2023-04-23T08:20:04;100485.34;;;14.87;72.15
68871;BME280;55906;52.278;6.808;2023-04-23T08:22:32;100493.28;;;14.85;72.00
68871;BME280;55906;52.278;6.808;2023-04-23T08:24:58;100493.31;;;15.02;71.03
68871;BME280;55906;52.278;6.808;2023-04-23T08:27:25;100484.50;;;15.15;70.76
68871;BME280;55906;52.278;6.808;2023-04-23T08:29:51;100487.16;;;15.40;70.63
68871;BME280;55906;52.278;6.808;2023-04-23T08:32:19;100495.13;;;15.47;68.77
68871;BME280;55906;52.278;6.808;2023-04-23T08:34:46;100485.44;;;15.58;68.13
68871;BME280;55906;52.278;6.808;2023-04-23T08:37:13;100474.81;;;15.81;67.83
68871;BME280;55906;52.278;6.808;2023-04-23T08:39:39;100487.13;;;16.13;66.95
68871;BME280;55906;52.278;6.808;2023-04-23T08:42:10;100490.56;;;16.36;67.10
68871;BME280;55906;52.278;6.808;2023-04-23T08:44:41;100480.59;;;16.90;66.60
68871;BME280;55906;52.278;6.808;2023-04-23T08:47:10;100479.50;;;17.24;64.13
68871;BME280;55906;52.278;6.808;2023-04-23T08:49:40;100486.28;;;17.59;61.48
68871;BME280;55906;52.278;6.808;2023-04-23T08:52:14;100477.34;;;17.72;60.65
68871;BME280;55906;52.278;6.808;2023-04-23T08:54:47;100482.41;;;17.97;60.42
68871;BME280;55906;52.278;6.808;2023-04-23T08:57:15;100478.41;;;18.37;59.66
68871;BME280;55906;52.278;6.808;2023-04-23T08:59:43;100475.84;;;18.31;56.90
68871;BME280;55906;52.278;6.808;2023-04-23T09:02:11;100473.66;;;18.64;56.28
68871;BME280;55906;52.278;6.808;2023-04-23T09:04:41;100475.91;;;18.94;55.33
68871;BME280;55906;52.278;6.808;2023-04-23T09:07:08;100476.78;;;18.95;55.35
68871;BME280;55906;52.278;6.808;2023-04-23T09:09:36;100476.63;;;19.04;54.29
68871;BME280;55906;52.278;6.808;2023-04-23T09:12:03;100465.50;;;19.33;52.94
68871;BME280;55906;52.278;6.808;2023-04-23T09:14:30;100468.06;;;19.39;53.01
68871;BME280;55906;52.278;6.808;2023-04-23T09:16:57;100471.91;;;19.78;51.36
68871;BME280;55906;52.278;6.808;2023-04-23T09:19:25;100466.38;;;19.89;51.88
68871;BME280;55906;52.278;6.808;2023-04-23T09:21:54;100462.38;;;20.11;50.99
68871;BME280;55906;52.278;6.808;2023-04-23T09:24:21;100461.94;;;20.32;49.92
68871;BME280;55906;52.278;6.808;2023-04-23T09:26:49;100467.78;;;20.53;48.67
68871;BME280;55906;52.278;6.808;2023-04-23T09:29:17;100464.13;;;20.57;48.61
68871;BME280;55906;52.278;6.808;2023-04-23T09:31:44;100468.13;;;20.77;47.73
68871;BME280;55906;52.278;6.808;2023-04-23T09:34:14;100461.66;;;20.48;47.40
68871;BME280;55906;52.278;6.808;2023-04-23T09:36:41;100452.06;;;20.77;47.04
68871;BME280;55906;52.278;6.808;2023-04-23T09:39:12;100459.22;;;20.77;45.75
68871;BME280;55906;52.278;6.808;2023-04-23T09:41:39;100448.50;;;20.77;46.92
68871;BME280;55906;52.278;6.808;2023-04-23T09:44:06;100447.78;;;21.09;46.57
68871;BME280;55906;52.278;6.808;2023-04-23T09:46:34;100445.53;;;21.29;45.47
68871;BME280;55906;52.278;6.808;2023-04-23T09:49:02;100443.28;;;21.48;45.48
68871;BME280;55906;52.278;6.808;2023-04-23T09:51:31;100441.00;;;21.67;45.48
68871;BME280;55906;52.278;6.808;2023-04-23T09:54:00;100445.91;;;21.50;45.54
68871;BME280;55906;52.278;6.808;2023-04-23T09:56:29;100438.78;;;21.83;45.26
68871;BME280;55906;52.278;6.808;2023-04-23T09:58:56;100429.53;;;21.94;43.88
68871;BME280;55906;52.278;6.808;2023-04-23T10:01:26;100436.91;;;21.52;43.62
68871;BME280;55906;52.278;6.808;2023-04-23T10:03:54;100432.25;;;21.60;44.19
68871;BME280;55906;52.278;6.808;2023-04-23T10:06:26;100423.81;;;21.76;42.70
68871;BME280;55906;52.278;6.808;2023-04-23T10:08:54;100426.31;;;22.16;42.69
68871;BME280;55906;52.278;6.808;2023-04-23T10:11:22;100416.34;;;21.87;43.15
68871;BME280;55906;52.278;6.808;2023-04-23T10:13:52;100418.03;;;21.58;42.59
68871;BME280;55906;52.278;6.808;2023-04-23T10:16:20;100418.44;;;21.76;43.14
68871;BME280;55906;52.278;6.808;2023-04-23T10:18:47;100416.69;;;22.07;42.28
68871;BME280;55906;52.278;6.808;2023-04-23T10:21:15;100420.09;;;22.45;41.88
68871;BME280;55906;52.278;6.808;2023-04-23T10:23:43;100422.56;;;22.21;42.83
68871;BME280;55906;52.278;6.808;2023-04-23T10:26:14;100417.38;;;22.74;41.86
68871;BME280;55906;52.278;6.808;2023-04-23T10:28:43;100408.50;;;22.72;41.77
68871;BME280;55906;52.278;6.808;2023-04-23T10:31:14;100434.00;;;22.57;42.10
68871;BME280;55906;52.278;6.808;2023-04-23T10:33:42;100426.69;;;22.33;42.75
68871;BME280;55906;52.278;6.808;2023-04-23T10:36:09;100419.66;;;22.29;41.40
68871;BME280;55906;52.278;6.808;2023-04-23T10:38:36;100430.22;;;22.35;40.59
68871;BME280;55906;52.278;6.808;2023-04-23T10:41:04;100424.53;;;22.46;41.96
68871;BME280;55906;52.278;6.808;2023-04-23T10:43:34;100432.78;;;22.67;39.32
68871;BME280;55906;52.278;6.808;2023-04-23T10:46:00;100416.63;;;22.98;38.11
68871;BME280;55906;52.278;6.808;2023-04-23T10:48:28;100422.00;;;22.69;39.25
68871;BME280;55906;52.278;6.808;2023-04-23T10:50:58;100416.78;;;22.04;40.05
68871;BME280;55906;52.278;6.808;2023-04-23T10:53:25;100415.38;;;21.57;41.39
68871;BME280;55906;52.278;6.808;2023-04-23T10:56:03;100394.41;;;21.40;40.53
68871;BME280;55906;52.278;6.808;2023-04-23T10:58:49;100409.94;;;21.92;40.68
68871;BME280;55906;52.278;6.808;2023-04-23T11:01:16;100424.19;;;21.62;38.76
68871;BME280;55906;52.278;6.808;2023-04-23T11:03:44;100419.72;;;22.27;38.37
68871;BME280;55906;52.278;6.808;2023-04-23T11:06:13;100399.88;;;22.33;37.50
68871;BME280;55906;52.278;6.808;2023-04-23T11:08:50;100403.03;;;22.75;37.14
68871;BME280;55906;52.278;6.808;2023-04-23T11:11:16;100408.91;;;22.30;37.99
68871;BME280;55906;52.278;6.808;2023-04-23T11:13:50;100403.78;;;21.89;37.52
68871;BME280;55906;52.278;6.808;2023-04-23T11:16:20;100399.94;;;22.31;36.83
68871;BME280;55906;52.278;6.808;2023-04-23T11:18:55;100391.84;;;21.69;37.79
68871;BME280;55906;52.278;6.808;2023-04-23T11:21:54;100384.44;;;22.41;35.95
68871;BME280;55906;52.278;6.808;2023-04-23T11:24:21;100388.19;;;22.35;36.43
68871;BME280;55906;52.278;6.808;2023-04-23T11:26:50;100374.81;;;22.91;36.93
68871;BME280;55906;52.278;6.808;2023-04-23T11:29:20;100385.53;;;22.63;37.41
68871;BME280;55906;52.278;6.808;2023-04-23T11:31:48;100383.84;;;21.99;37.73
68871;BME280;55906;52.278;6.808;2023-04-23T11:34:16;100379.63;;;21.59;38.44
68871;BME280;55906;52.278;6.808;2023-04-23T11:36:43;100374.59;;;21.80;38.58
68871;BME280;55906;52.278;6.808;2023-04-23T11:39:10;100363.78;;;22.15;38.45
68871;BME280;55906;52.278;6.808;2023-04-23T11:41:37;100371.81;;;22.45;37.54
68871;BME280;55906;52.278;6.808;2023-04-23T11:44:04;100350.97;;;22.54;35.91
68871;BME280;55906;52.278;6.808;2023-04-23T11:46:32;100371.13;;;22.38;36.26
68871;BME280;55906;52.278;6.808;2023-04-23T11:48:59;100353.56;;;22.85;35.47
68871;BME280;55906;52.278;6.808;2023-04-23T11:51:27;100362.84;;;23.28;34.25
68871;BME280;55906;52.278;6.808;2023-04-23T11:54:01;100359.25;;;23.55;33.70
68871;BME280;55906;52.278;6.808;2023-04-23T11:56:29;100348.81;;;23.46;33.59
68871;BME280;55906;52.278;6.808;2023-04-23T11:58:59;100343.34;;;23.23;33.81
68871;BME280;55906;52.278;6.808;2023-04-23T12:01:41;100350.31;;;22.74;35.09
68871;BME280;55906;52.278;6.808;2023-04-23T12:04:09;100341.84;;;23.14;35.67
68871;BME280;55906;52.278;6.808;2023-04-23T12:06:39;100340.53;;;23.52;35.50
68871;BME280;55906;52.278;6.808;2023-04-23T12:09:06;100325.34;;;23.51;35.04
68871;BME280;55906;52.278;6.808;2023-04-23T12:11:34;100327.63;;;23.37;35.48
68871;BME280;55906;52.278;6.808;2023-04-23T12:14:01;100324.31;;;23.04;35.68
68871;BME280;55906;52.278;6.808;2023-04-23T12:16:39;100320.09;;;22.97;35.55
68871;BME280;55906;52.278;6.808;2023-04-23T12:19:09;100321.50;;;22.53;35.37
68871;BME280;55906;52.278;6.808;2023-04-23T12:21:51;100316.63;;;22.38;36.25
68871;BME280;55906;52.278;6.808;2023-04-23T12:24:19;100301.47;;;22.37;36.86
68871;BME280;55906;52.278;6.808;2023-04-23T12:26:48;100308.19;;;22.22;37.46
68871;BME280;55906;52.278;6.808;2023-04-23T12:29:17;100303.72;;;21.91;38.03
68871;BME280;55906;52.278;6.808;2023-04-23T12:31:43;100295.06;;;21.82;38.54
68871;BME280;55906;52.278;6.808;2023-04-23T12:34:12;100296.56;;;21.61;37.88
68871;BME280;55906;52.278;6.808;2023-04-23T12:36:43;100300.16;;;21.60;38.58
68871;BME280;55906;52.278;6.808;2023-04-23T12:39:29;100291.41;;;21.55;38.56
68871;BME280;55906;52.278;6.808;2023-04-23T12:41:57;100293.41;;;21.47;38.04
68871;BME280;55906;52.278;6.808;2023-04-23T12:44:27;100291.44;;;21.53;38.04
68871;BME280;55906;52.278;6.808;2023-04-23T12:46:54;100296.63;;;21.59;38.30
68871;BME280;55906;52.278;6.808;2023-04-23T12:49:22;100290.50;;;21.54;37.43
68871;BME280;55906;52.278;6.808;2023-04-23T12:51:48;100283.22;;;21.28;37.65
68871;BME280;55906;52.278;6.808;2023-04-23T12:54:16;100284.53;;;21.12;37.03
68871;BME280;55906;52.278;6.808;2023-04-23T12:56:44;100283.84;;;21.04;38.23